Time;durP1;ratioP1;P1;durP2;ratioP2;P2;SDS_P1;SDS_P2;PMS_P1;PMS_P2;Temp;Humidity;BMP_temperature;BMP_pressure;BME280_temperature;BME280_humidity;BME280_pressure;Samples;Min_cycle;Max_cycle;Signal;HPM_P1;HPM_P2
2021/12/01 00:01:40;;;;;;;4.93;2.08;;;;;;;11.53;57.33;100658.03;4154304;28;20112;-57
2021/12/01 00:03:42;;;;;;;3.55;1.60;;;;;;;11.53;57.29;100656.28;4153976;28;20049;-57
2021/12/01 00:05:45;;;;;;;5.05;2.13;;;;;;;11.54;56.95;100652.69;4154721;28;20056;-57
2021/12/01 00:07:48;;;;;;;4.13;1.90;;;;;;;11.51;57.09;100645.78;4154746;28;20273;-57
2021/12/01 00:09:51;;;;;;;4.45;1.95;;;;;;;11.55;57.18;100661.47;4156621;28;20322;-57
2021/12/01 00:11:53;;;;;;;5.40;2.03;;;;;;;11.52;57.26;100636.13;4157758;28;20045;-57
2021/12/01 00:13:55;;;;;;;3.42;1.70;;;;;;;11.51;57.07;100637.03;4157634;28;20049;-57
2021/12/01 00:15:57;;;;;;;;;;;;;;;11.53;56.90;100629.06;4154062;28;20062;-55
2021/12/01 00:18:00;;;;;;;4.78;1.70;;;;;;;11.50;57.30;100625.63;4156128;28;19964;-57
2021/12/01 00:20:04;;;;;;;;;;;;;;;11.53;57.08;100615.88;4158187;28;20065;-57
2021/12/01 00:22:06;;;;;;;4.18;1.70;;;;;;;11.54;57.40;100607.06;4157431;28;20224;-57
2021/12/01 00:24:08;;;;;;;3.67;1.50;;;;;;;11.54;57.39;100594.75;4157467;28;20282;-56
2021/12/01 00:26:10;;;;;;;;;;;;;;;11.55;57.21;100591.19;4158069;28;20109;-56
2021/12/01 00:28:15;;;;;;;3.72;1.60;;;;;;;11.37;56.90;100555.94;4155862;28;19917;-55
2021/12/01 00:30:17;;;;;;;;;;;;;;;11.54;57.11;100573.66;4157096;28;20113;-55
2021/12/01 00:32:19;;;;;;;4.03;1.70;;;;;;;11.54;56.94;100560.50;4157271;28;19988;-57
2021/12/01 00:34:22;;;;;;;;;;;;;;;11.53;57.07;100560.56;4144410;28;20042;-57
2021/12/01 00:36:27;;;;;;;6.82;2.17;;;;;;;11.54;57.49;100555.22;4157719;28;19917;-57
2021/12/01 00:38:29;;;;;;;3.13;1.55;;;;;;;11.54;57.26;100544.69;4157364;28;20109;-52
2021/12/01 00:40:32;;;;;;;5.43;1.83;;;;;;;11.32;57.27;100511.41;4157412;28;20066;-55
2021/12/01 00:42:34;;;;;;;3.75;1.80;;;;;;;11.54;57.22;100528.06;4157190;28;20101;-57
2021/12/01 00:44:36;;;;;;;4.90;1.90;;;;;;;11.55;57.25;100529.78;4157319;28;20087;-59
2021/12/01 00:46:42;;;;;;;4.10;1.63;;;;;;;11.55;57.10;100532.41;4157376;28;20070;-56
2021/12/01 00:48:45;;;;;;;3.40;1.60;;;;;;;11.56;57.26;100526.22;4156877;28;20129;-57
2021/12/01 00:50:48;;;;;;;3.88;1.75;;;;;;;11.55;57.03;100504.28;4156182;28;20049;-55
2021/12/01 00:52:52;;;;;;;3.22;1.52;;;;;;;11.56;57.32;100531.50;4155529;28;20064;-54
2021/12/01 00:54:54;;;;;;;3.58;1.60;;;;;;;11.53;56.96;100494.72;4154195;28;20226;-57
2021/12/01 00:56:57;;;;;;;4.35;1.73;;;;;;;11.55;57.08;100501.66;4157291;28;20116;-57
2021/12/01 00:59:00;;;;;;;4.90;1.70;;;;;;;11.54;57.34;100494.66;4156356;28;20049;-58
2021/12/01 01:01:03;;;;;;;4.90;1.60;;;;;;;11.57;57.32;100491.03;4157157;28;20341;-58
2021/12/01 01:03:05;;;;;;;4.65;1.80;;;;;;;11.57;57.38;100491.03;4156874;28;20299;-57
2021/12/01 01:05:08;;;;;;;4.63;1.73;;;;;;;11.54;57.17;100480.66;4156862;28;20233;-53
2021/12/01 01:07:10;;;;;;;5.03;1.80;;;;;;;11.56;57.40;100478.81;4156028;28;20046;-56
2021/12/01 01:09:12;;;;;;;;;;;;;;;11.56;57.19;100471.75;4157128;28;20104;-56
2021/12/01 01:18:17;;;;;;;3.40;1.50;;;;;;;11.56;57.35;100444.56;4156715;28;20046;-56
2021/12/01 01:20:19;;;;;;;2.63;1.40;;;;;;;11.57;57.39;100456.78;4155585;28;20065;-56
2021/12/01 01:22:22;;;;;;;3.75;1.60;;;;;;;11.56;57.30;100455.94;4156255;28;20056;-57
2021/12/01 01:24:24;;;;;;;2.75;1.42;;;;;;;11.57;57.11;100441.88;4156142;28;20349;-57
2021/12/01 01:26:26;;;;;;;;;;;;;;;11.56;57.15;100440.16;4157233;28;20295;-60
2021/12/01 01:28:29;;;;;;;4.03;1.40;;;;;;;11.57;57.33;100439.22;4156639;28;19984;-57
2021/12/01 01:30:31;;;;;;;4.25;1.52;;;;;;;11.50;57.08;100422.00;4156613;28;20046;-57
2021/12/01 01:32:34;;;;;;;4.13;1.40;;;;;;;11.57;57.03;100433.09;4171498;28;20116;-57
2021/12/01 01:34:36;;;;;;;4.50;1.60;;;;;;;11.56;57.24;100426.97;4156551;28;20054;-57
2021/12/01 01:36:38;;;;;;;5.45;1.50;;;;;;;11.57;57.12;100425.19;4156625;28;20052;-57
2021/12/01 01:38:41;;;;;;;4.95;1.60;;;;;;;11.57;57.01;100414.66;4156516;28;20047;-57
2021/12/01 01:40:43;;;;;;;5.20;1.30;;;;;;;11.55;57.13;100417.38;4156396;28;20436;-62
2021/12/01 01:42:45;;;;;;;3.65;1.40;;;;;;;11.59;56.87;100413.69;4154287;28;20120;-57
2021/12/01 01:44:47;;;;;;;;;;;;;;;11.58;57.20;100409.34;4156562;28;20038;-57
2021/12/01 01:46:50;;;;;;;6.20;1.40;;;;;;;11.57;57.23;100410.25;4156277;28;20039;-56
2021/12/01 01:48:56;;;;;;;3.10;1.13;;;;;;;11.58;57.26;100411.09;4156310;28;20129;-57
2021/12/01 01:51:01;;;;;;;3.95;1.40;;;;;;;11.59;57.31;100403.16;4156110;28;20052;-58
2021/12/01 01:53:17;;;;;;;3.53;1.20;;;;;;;11.60;57.10;100396.09;4152334;28;20318;-56
2021/12/01 01:55:20;;;;;;;3.25;1.33;;;;;;;11.58;57.21;100387.41;4144407;28;20052;-53
2021/12/01 01:57:22;;;;;;;;;;;;;;;11.59;57.09;100386.47;4156746;28;20045;-53
2021/12/01 01:59:24;;;;;;;3.63;1.20;;;;;;;11.59;57.08;100389.97;4155573;28;19992;-57
2021/12/01 02:01:53;;;;;;;2.97;1.30;;;;;;;11.58;56.96;100382.13;4153604;28;20054;-57
2021/12/01 02:03:49;;;;;;;;;;;;;;;11.60;57.43;100396.09;4139886;28;20342;-57
2021/12/01 02:05:52;;;;;;;4.60;1.40;;;;;;;11.57;57.41;100372.50;4148160;28;19918;-53
2021/12/01 02:07:54;;;;;;;3.22;1.30;;;;;;;11.59;57.47;100374.19;4155174;28;20049;-56
2021/12/01 02:09:56;;;;;;;;;;;;;;;11.59;57.24;100365.41;4156596;28;20112;-54
2021/12/01 02:12:01;;;;;;;4.07;1.30;;;;;;;11.59;57.14;100366.28;4155961;28;20082;-57
2021/12/01 02:14:04;;;;;;;3.83;1.30;;;;;;;11.59;57.17;100353.09;4156023;28;20069;-57
2021/12/01 02:16:07;;;;;;;4.18;1.20;;;;;;;11.61;57.29;100337.22;4155545;28;20117;-57
2021/12/01 02:18:11;;;;;;;2.28;1.10;;;;;;;11.58;57.42;100332.97;4154375;28;20108;-57
2021/12/01 02:20:19;;;;;;;5.15;1.35;;;;;;;11.61;57.14;100335.44;4155981;28;20057;-58
2021/12/01 02:22:21;;;;;;;3.92;1.30;;;;;;;11.60;57.31;100319.72;4155586;28;20056;-57
2021/12/01 02:24:24;;;;;;;;;;;;;;;11.61;57.21;100324.06;4155358;28;20401;-56
2021/12/01 02:26:28;;;;;;;1.75;0.95;;;;;;;11.60;57.23;100330.25;4155841;28;19917;-57
2021/12/01 02:28:31;;;;;;;3.70;1.23;;;;;;;11.61;57.54;100319.63;4155903;28;20112;-57
2021/12/01 02:30:33;;;;;;;2.72;1.13;;;;;;;11.62;57.23;100317.88;4155835;28;20109;-57
2021/12/01 02:32:35;;;;;;;;;;;;;;;11.61;57.40;100300.34;4154601;28;20056;-53
2021/12/01 02:34:44;;;;;;;5.28;1.40;;;;;;;11.55;57.46;100288.31;4155018;28;19917;-56
2021/12/01 02:36:52;;;;;;;3.03;1.13;;;;;;;11.61;57.29;100285.38;4155147;28;20065;-58
2021/12/01 02:38:54;;;;;;;2.80;1.20;;;;;;;11.55;57.59;100279.56;4155066;28;20373;-57
2021/12/01 02:40:56;;;;;;;;;;;;;;;11.61;57.35;100284.53;4155044;28;20050;-57
2021/12/01 02:42:58;;;;;;;3.45;1.35;;;;;;;11.61;57.75;100274.84;4155474;28;19988;-57
2021/12/01 02:45:01;;;;;;;;;;;;;;;11.62;57.37;100262.56;4139825;28;20054;-55
2021/12/01 02:47:03;;;;;;;3.10;1.05;;;;;;;11.62;57.37;100275.72;4144747;28;19931;-60
2021/12/01 02:49:06;;;;;;;2.95;1.25;;;;;;;11.59;57.61;100255.66;4155428;28;20072;-55
2021/12/01 02:51:11;;;;;;;5.28;1.20;;;;;;;11.62;57.49;100246.75;4153479;28;20111;-54
2021/12/01 02:53:14;;;;;;;3.33;1.40;;;;;;;11.55;57.70;100235.63;4150856;28;20048;-58
2021/12/01 02:55:19;;;;;;;2.42;1.02;;;;;;;11.45;57.55;100210.69;4154602;28;20041;-57
2021/12/01 02:57:21;;;;;;;3.53;1.35;;;;;;;11.61;57.44;100219.53;4155357;28;20050;-54
2021/12/01 02:59:23;;;;;;;;;;;;;;;11.62;57.63;100221.25;4155608;28;20061;-56
2021/12/01 03:01:26;;;;;;;3.38;1.20;;;;;;;11.58;57.97;100198.63;4155319;28;19917;-57
2021/12/01 03:03:28;;;;;;;3.58;1.13;;;;;;;11.59;57.66;100181.03;4155003;28;20118;-56
2021/12/01 03:05:31;;;;;;;3.10;1.08;;;;;;;11.61;57.79;100182.66;4154591;28;20053;-56
2021/12/01 03:07:33;;;;;;;2.42;1.10;;;;;;;11.59;57.75;100173.13;4154034;28;20064;-54
2021/12/01 03:09:35;;;;;;;;;;;;;;;11.61;57.97;100158.97;4155742;28;20052;-57
2021/12/01 03:11:37;;;;;;;2.85;1.05;;;;;;;11.61;57.54;100153.69;4154793;28;19917;-57
2021/12/01 03:13:40;;;;;;;2.25;1.00;;;;;;;11.63;57.47;100151.00;4154948;28;20273;-57
2021/12/01 03:15:43;;;;;;;3.88;1.17;;;;;;;11.62;57.96;100155.41;4154930;28;20054;-55
2021/12/01 03:17:45;;;;;;;3.38;1.10;;;;;;;11.62;57.87;100152.78;4154850;28;21094;-56
2021/12/01 03:19:47;;;;;;;3.70;1.20;;;;;;;11.61;57.94;100153.69;4155055;28;20045;-54
2021/12/01 03:21:49;;;;;;;;;;;;;;;11.62;57.68;100146.66;4154158;28;20430;-57
2021/12/01 03:23:51;;;;;;;3.45;1.15;;;;;;;11.62;57.94;100149.31;4155014;28;19943;-57
2021/12/01 03:25:53;;;;;;;;;;;;;;;11.63;58.29;100140.47;4155283;28;20053;-61
2021/12/01 03:27:56;;;;;;;3.60;1.40;;;;;;;11.62;57.74;100130.84;4154911;28;19917;-55
2021/12/01 03:29:58;;;;;;;;;;;;;;;11.62;58.13;100129.06;4154826;28;20176;-57
2021/12/01 03:32:00;;;;;;;2.15;1.05;;;;;;;11.59;58.10;100129.22;4155053;28;20347;-58
2021/12/01 03:34:04;;;;;;;2.20;0.98;;;;;;;11.61;57.70;100127.34;4154830;28;20288;-56
2021/12/01 03:36:06;;;;;;;2.92;1.05;;;;;;;11.63;58.25;100124.66;4154951;28;20116;-57
2021/12/01 03:38:09;;;;;;;3.97;1.10;;;;;;;11.63;58.08;100112.34;4155005;28;20344;-57
2021/12/01 03:40:13;;;;;;;4.30;1.40;;;;;;;11.63;57.88;100106.22;4154872;28;20381;-56
2021/12/01 03:42:15;;;;;;;2.55;1.13;;;;;;;11.63;57.78;100099.16;4155453;28;20054;-57
2021/12/01 03:44:17;;;;;;;2.40;0.90;;;;;;;11.63;57.92;100090.44;4157907;28;20259;-54
2021/12/01 03:46:21;;;;;;;2.75;1.10;;;;;;;11.63;57.98;100088.63;4157722;28;20046;-56
2021/12/01 03:48:24;;;;;;;2.60;0.95;;;;;;;11.61;57.83;100077.31;4158022;28;20061;-57
2021/12/01 03:50:27;;;;;;;3.20;0.90;;;;;;;11.63;57.93;100078.09;4157909;28;20117;-55
2021/12/01 03:52:29;;;;;;;3.45;0.88;;;;;;;11.63;58.51;100066.72;4157954;28;20105;-57
2021/12/01 03:54:31;;;;;;;;;;;;;;;11.63;58.16;100062.28;4152492;28;20050;-58
2021/12/01 03:56:33;;;;;;;2.15;0.80;;;;;;;11.50;58.15;100037.50;4157966;28;19921;-56
2021/12/01 03:58:36;;;;;;;2.38;0.68;;;;;;;11.49;58.48;100028.78;4158059;28;20054;-57
2021/12/01 04:00:38;;;;;;;2.85;1.45;;;;;;;11.64;58.46;100049.97;4157348;28;20071;-56
2021/12/01 04:02:41;;;;;;;;;;;;;;;11.64;58.35;100048.19;4158328;28;20072;-57
2021/12/01 04:04:43;;;;;;;3.55;1.02;;;;;;;11.63;58.54;100027.22;4157071;28;19917;-54
2021/12/01 04:06:45;;;;;;;2.83;0.93;;;;;;;11.64;58.23;100028.91;4157887;28;20053;-58
2021/12/01 04:08:48;;;;;;;1.77;0.80;;;;;;;11.62;58.55;100004.44;4159077;28;20052;-58
2021/12/01 04:10:50;;;;;;;2.22;1.00;;;;;;;11.64;58.30;100013.97;4157834;28;20125;-57
2021/12/01 04:12:52;;;;;;;2.72;0.90;;;;;;;11.64;58.44;100008.69;4157807;28;20246;-57
2021/12/01 04:14:54;;;;;;;3.30;0.80;;;;;;;11.61;58.57;99998.31;4157181;28;20061;-57
2021/12/01 04:16:57;;;;;;;2.47;0.93;;;;;;;11.63;58.69;99988.56;4157808;28;20045;-56
2021/12/01 04:18:59;;;;;;;3.40;0.80;;;;;;;11.60;58.69;99985.22;4157502;28;20050;-56
2021/12/01 04:21:01;;;;;;;2.13;0.80;;;;;;;11.64;58.73;99981.47;4157506;28;20113;-55
2021/12/01 04:23:03;;;;;;;;;;;;;;;11.64;58.91;99976.22;4157251;28;20083;-54
2021/12/01 04:25:06;;;;;;;1.83;0.80;;;;;;;11.64;59.00;99968.31;4156909;28;20198;-54
2021/12/01 04:27:09;;;;;;;1.73;0.73;;;;;;;11.64;58.99;99961.28;4157532;28;20038;-55
2021/12/01 04:29:11;;;;;;;2.28;0.90;;;;;;;11.61;59.01;99953.53;4157728;28;20065;-57
2021/12/01 04:31:13;;;;;;;;;;;;;;;11.65;59.25;99944.56;4155185;28;20045;-55
2021/12/01 04:33:15;;;;;;;2.30;0.82;;;;;;;11.54;58.90;99928.44;4157375;28;19932;-54
2021/12/01 04:35:20;;;;;;;2.08;0.80;;;;;;;11.65;58.95;99944.56;4157155;28;20173;-56
2021/12/01 04:37:22;;;;;;;2.80;0.93;;;;;;;11.65;59.05;99930.50;4157377;28;20046;-55
2021/12/01 04:39:24;;;;;;;1.83;0.70;;;;;;;11.65;59.17;99923.47;4157439;28;20109;-54
2021/12/01 04:41:29;;;;;;;2.47;0.82;;;;;;;11.65;59.07;99915.59;4157127;28;20046;-57
2021/12/01 04:43:31;;;;;;;3.58;0.90;;;;;;;11.64;59.19;99915.63;4157179;28;20097;-56
2021/12/01 04:45:36;;;;;;;;;;;;;;;11.65;59.08;99922.63;4157750;28;20045;-56
2021/12/01 04:47:41;;;;;;;2.38;0.80;;;;;;;11.64;59.11;99907.75;4157076;28;20148;-58
2021/12/01 04:49:43;;;;;;;2.15;0.80;;;;;;;11.59;59.46;99894.84;4155543;28;20053;-57
2021/12/01 04:51:50;;;;;;;3.30;0.80;;;;;;;11.64;59.37;99891.94;4157028;28;20061;-57
2021/12/01 04:53:52;;;;;;;3.10;0.90;;;;;;;11.65;59.16;99877.84;4145685;28;20106;-57
2021/12/01 04:55:54;;;;;;;2.28;0.88;;;;;;;11.65;59.16;99876.06;4143075;28;20165;-55
2021/12/01 04:57:57;;;;;;;;;;;;;;;11.65;59.10;99880.47;4157566;28;20255;-56
2021/12/01 04:59:59;;;;;;;2.13;0.80;;;;;;;11.62;59.28;99870.97;4157174;28;20004;-56
2021/12/01 05:02:01;;;;;;;2.55;0.93;;;;;;;11.65;59.32;99864.66;4156853;28;20087;-55
2021/12/01 05:04:04;;;;;;;4.00;1.10;;;;;;;11.65;59.24;99860.28;4157184;28;20109;-57
2021/12/01 05:06:06;;;;;;;1.52;0.77;;;;;;;11.62;59.54;99846.41;4156800;28;20337;-57
2021/12/01 05:08:09;;;;;;;2.25;0.90;;;;;;;11.65;59.75;99846.22;4157039;28;20125;-56
2021/12/01 05:10:11;;;;;;;2.08;0.80;;;;;;;11.65;59.60;99846.22;4157005;28;20049;-57
2021/12/01 05:12:13;;;;;;;;;;;;;;;11.64;59.56;99837.50;4157240;28;20112;-57
2021/12/01 05:14:15;;;;;;;1.95;0.90;;;;;;;11.64;59.84;99834.88;4156876;28;20211;-57
2021/12/01 05:16:17;;;;;;;3.42;0.90;;;;;;;11.57;59.63;99832.63;4155728;28;20069;-57
2021/12/01 05:18:19;;;;;;;;;;;;;;;11.65;60.12;99830.44;4157192;28;20104;-58
2021/12/01 05:20:21;;;;;;;2.22;0.73;;;;;;;11.63;59.78;99829.69;4156919;28;19980;-57
2021/12/01 05:22:25;;;;;;;;;;;;;;;11.64;60.04;99834.00;4157135;28;20284;-57
2021/12/01 05:24:28;;;;;;;1.17;0.60;;;;;;;11.63;59.88;99825.25;4156661;28;19918;-57
2021/12/01 05:26:30;;;;;;;2.65;0.75;;;;;;;11.62;59.67;99820.91;4171942;28;20053;-55
2021/12/01 05:28:33;;;;;;;2.38;0.82;;;;;;;11.63;59.70;99814.72;4156093;28;20135;-59
2021/12/01 05:30:35;;;;;;;1.33;0.80;;;;;;;11.63;59.72;99816.53;4156880;28;20356;-56
2021/12/01 05:32:37;;;;;;;1.45;0.70;;;;;;;11.65;59.92;99818.13;4156687;28;20109;-55
2021/12/01 05:34:40;;;;;;;;;;;;;;;11.64;59.78;99813.78;4156894;28;20069;-55
2021/12/01 05:36:42;;;;;;;2.25;0.70;;;;;;;11.64;59.65;99794.50;4156080;28;19935;-57
2021/12/01 05:38:45;;;;;;;2.13;0.65;;;;;;;11.65;60.02;99807.59;4156477;28;20096;-57
2021/12/01 05:40:50;;;;;;;1.35;0.60;;;;;;;11.39;59.70;99773.94;4155939;28;20046;-57
2021/12/01 05:42:52;;;;;;;1.92;0.68;;;;;;;11.61;59.84;99808.69;4156416;28;20108;-56
2021/12/01 05:44:55;;;;;;;;;;;;;;;11.65;59.65;99807.59;4156898;28;20056;-56
2021/12/01 05:46:57;;;;;;;1.70;0.57;;;;;;;11.65;59.86;99812.88;4156381;28;19925;-56
2021/12/01 05:48:59;;;;;;;;;;;;;;;11.64;59.76;99800.63;4154827;28;20512;-57
2021/12/01 05:51:02;;;;;;;1.23;0.50;;;;;;;11.62;60.19;99789.31;4154935;28;20000;-56
2021/12/01 05:53:05;;;;;;;1.23;0.55;;;;;;;11.64;59.82;99783.94;4150128;28;20046;-56
2021/12/01 05:55:07;;;;;;;;;;;;;;;11.65;59.68;99783.03;4156211;28;20109;-55
2021/12/01 05:57:10;;;;;;;1.60;0.57;;;;;;;11.65;60.09;99777.75;4156301;28;20186;-56
2021/12/01 05:59:12;;;;;;;2.47;0.60;;;;;;;11.65;60.13;99770.72;4155890;28;20518;-57
2021/12/01 06:01:14;;;;;;;;;;;;;;;11.48;59.91;99747.09;4156414;28;20046;-56
2021/12/01 06:03:17;;;;;;;0.75;0.50;;;;;;;11.65;60.09;99777.75;4156196;28;19932;-56
2021/12/01 06:05:21;;;;;;;1.83;0.70;;;;;;;11.66;59.89;99766.28;4155945;28;20046;-57
2021/12/01 06:07:23;;;;;;;1.10;0.45;;;;;;;11.60;59.88;99750.84;4155548;28;20064;-57
2021/12/01 06:09:25;;;;;;;1.02;0.47;;;;;;;11.66;60.23;99755.75;4156193;28;20378;-58
2021/12/01 06:11:27;;;;;;;1.85;0.60;;;;;;;11.66;60.21;99742.59;4155243;28;20109;-57
2021/12/01 06:13:30;;;;;;;0.90;0.50;;;;;;;11.66;59.96;99742.59;4156049;28;20109;-58
2021/12/01 06:15:33;;;;;;;1.98;0.60;;;;;;;11.65;60.15;99736.47;4155290;28;20057;-57
2021/12/01 06:17:35;;;;;;;0.75;0.40;;;;;;;11.66;60.19;99726.78;4156214;28;20229;-55
2021/12/01 06:19:38;;;;;;;1.30;0.50;;;;;;;11.63;60.18;99724.34;4155956;28;20322;-57
2021/12/01 06:21:41;;;;;;;1.10;0.43;;;;;;;11.65;60.21;99727.72;4155596;28;20108;-57
2021/12/01 06:23:43;;;;;;;0.70;0.35;;;;;;;11.65;60.39;99728.59;4155773;28;20087;-59
2021/12/01 06:25:45;;;;;;;0.50;0.30;;;;;;;11.67;60.26;99734.59;4155566;28;20109;-56
2021/12/01 06:27:48;;;;;;;;;;;;;;;11.67;60.46;99723.22;4155672;28;20046;-57
2021/12/01 06:29:50;;;;;;;0.82;0.50;;;;;;;11.66;60.07;99724.16;4155523;28;19963;-58
2021/12/01 06:31:52;;;;;;;2.53;0.40;;;;;;;11.67;60.11;99724.06;4155941;28;20053;-56
2021/12/01 06:33:54;;;;;;;1.67;0.43;;;;;;;11.67;60.33;99716.16;4155649;28;20076;-56
2021/12/01 06:35:56;;;;;;;0.90;0.50;;;;;;;11.67;60.17;99721.41;4155517;28;20053;-57
2021/12/01 06:37:58;;;;;;;1.10;0.40;;;;;;;11.67;60.27;99708.25;4155930;28;20095;-58
2021/12/01 06:40:00;;;;;;;1.35;0.30;;;;;;;11.67;59.93;99708.25;4155434;28;20075;-57
2021/12/01 06:42:03;;;;;;;1.00;0.50;;;;;;;11.69;60.22;99712.59;4155801;28;20144;-56
2021/12/01 06:44:05;;;;;;;0.90;0.50;;;;;;;11.66;60.04;99696.03;4155529;28;20111;-56
2021/12/01 06:46:07;;;;;;;1.10;0.60;;;;;;;11.67;60.22;99705.63;4154890;28;20050;-54
2021/12/01 06:48:09;;;;;;;0.88;0.40;;;;;;;11.66;60.28;99696.03;4155463;28;20196;-55
2021/12/01 06:50:13;;;;;;;0.60;0.40;;;;;;;11.69;60.22;99707.31;4153833;28;20046;-57
2021/12/01 06:52:15;;;;;;;0.70;0.40;;;;;;;11.65;60.13;99693.47;4155327;28;20180;-56
2021/12/01 06:54:17;;;;;;;;;;;;;;;11.69;60.07;99692.38;4141814;28;20334;-56
2021/12/01 06:56:21;;;;;;;4.25;0.50;;;;;;;11.69;60.08;99700.28;4154206;28;19987;-55
2021/12/01 06:58:23;;;;;;;2.78;0.50;;;;;;;11.68;59.90;99688.06;4154489;28;20056;-57
2021/12/01 07:00:25;;;;;;;;;;;;;;;11.70;60.31;99693.22;4154998;28;20042;-56
2021/12/01 07:02:27;;;;;;;1.02;0.40;;;;;;;11.69;60.19;99695.03;4152706;28;19923;-55
2021/12/01 07:04:30;;;;;;;1.35;0.50;;;;;;;11.70;60.33;99686.19;4155448;28;20330;-56
2021/12/01 07:06:32;;;;;;;1.05;0.40;;;;;;;11.70;60.41;99683.56;4154443;28;20121;-56
2021/12/01 07:08:36;;;;;;;;;;;;;;;11.70;60.28;99686.19;4155778;28;20050;-57
2021/12/01 07:10:38;;;;;;;1.10;0.40;;;;;;;11.71;60.03;99684.38;4155043;28;20343;-57
2021/12/01 07:12:41;;;;;;;;;;;;;;;11.71;60.33;99685.22;4155569;28;20109;-56
2021/12/01 07:14:43;;;;;;;;;;;;;;;11.70;60.30;99688.81;4155479;28;19984;-58
2021/12/01 07:16:46;;;;;;;1.83;0.50;;;;;;;11.70;60.40;99674.78;4152894;28;19917;-59
2021/12/01 07:18:48;;;;;;;1.15;0.47;;;;;;;11.71;60.17;99682.59;4151614;28;20049;-55
2021/12/01 07:20:50;;;;;;;1.17;0.30;;;;;;;11.63;60.05;99671.66;4153514;28;20301;-57
2021/12/01 07:22:52;;;;;;;;;;;;;;;11.71;60.16;99684.38;4155273;28;20117;-57
2021/12/01 07:24:54;;;;;;;1.35;0.45;;;;;;;11.72;60.11;99683.47;4155099;28;19921;-57
2021/12/01 07:26:57;;;;;;;0.85;0.40;;;;;;;11.72;60.17;99689.56;4154796;28;20128;-57
2021/12/01 07:28:59;;;;;;;1.38;0.30;;;;;;;11.71;60.43;99689.66;4154984;28;20204;-58
2021/12/01 07:31:02;;;;;;;2.38;0.60;;;;;;;11.72;60.22;99681.66;4155031;28;20237;-56
2021/12/01 07:33:04;;;;;;;0.22;0.20;;;;;;;11.72;60.23;99688.72;4155262;28;20045;-56
2021/12/01 07:35:06;;;;;;;1.25;0.43;;;;;;;11.72;60.11;99679.03;4154746;28;20046;-56
2021/12/01 07:37:13;;;;;;;2.15;0.40;;;;;;;11.74;60.27;99690.34;4153834;28;20100;-57
2021/12/01 07:39:16;;;;;;;2.80;0.60;;;;;;;11.74;60.45;99695.59;4154195;28;20240;-57
2021/12/01 07:41:18;;;;;;;2.70;0.93;;;;;;;11.73;60.40;99685.16;4154687;28;20050;-56
2021/12/01 07:43:20;;;;;;;0.60;0.30;;;;;;;11.74;60.09;99690.34;4155001;28;20054;-57
2021/12/01 07:45:22;;;;;;;;;;;;;;;11.74;60.22;99685.06;4155681;28;20261;-57
2021/12/01 07:47:24;;;;;;;1.40;0.40;;;;;;;11.75;60.24;99688.53;4154611;28;19921;-56
2021/12/01 07:49:26;;;;;;;0.93;0.40;;;;;;;11.74;59.91;99687.69;4154437;28;20103;-57
2021/12/01 07:51:34;;;;;;;1.58;0.40;;;;;;;11.75;60.20;99688.53;4154597;28;20061;-57
2021/12/01 07:53:36;;;;;;;;;;;;;;;11.75;60.06;99684.13;4149338;28;20109;-56
2021/12/01 07:55:39;;;;;;;1.55;0.52;;;;;;;11.75;59.94;99684.13;4154822;28;19945;-56
2021/12/01 07:57:42;;;;;;;1.83;0.50;;;;;;;11.76;59.86;99679.69;4154445;28;20101;-56
2021/12/01 07:59:44;;;;;;;1.63;0.50;;;;;;;11.76;59.90;99675.28;4154117;28;20049;-56
2021/12/01 08:01:46;;;;;;;;;;;;;;;11.77;60.12;99668.22;4155271;28;20109;-54
2021/12/01 08:03:48;;;;;;;1.80;0.50;;;;;;;11.76;60.01;99656.00;4154697;28;20220;-56
2021/12/01 08:05:51;;;;;;;;;;;;;;;11.77;60.00;99649.78;4155495;28;20056;-56
2021/12/01 08:07:55;;;;;;;1.30;0.30;;;;;;;11.75;60.16;99657.78;4154388;28;19943;-57
2021/12/01 08:09:57;;;;;;;1.60;0.32;;;;;;;11.76;60.05;99656.84;4154632;28;20109;-55
2021/12/01 08:11:59;;;;;;;1.48;0.38;;;;;;;11.74;60.08;99655.25;4154606;28;20045;-55
2021/12/01 08:14:01;;;;;;;1.98;0.40;;;;;;;11.77;60.02;99647.16;4154652;28;20110;-57
2021/12/01 08:16:04;;;;;;;1.30;0.40;;;;;;;11.79;60.15;99655.81;4154513;28;20058;-57
2021/12/01 08:18:06;;;;;;;1.17;0.38;;;;;;;11.77;59.69;99644.53;4154044;28;20105;-55
2021/12/01 08:20:09;;;;;;;1.27;0.50;;;;;;;11.75;59.77;99641.97;4154797;28;20110;-57
2021/12/01 08:22:11;;;;;;;1.25;0.30;;;;;;;11.75;59.92;99631.44;4154759;28;20049;-56
2021/12/01 08:24:14;;;;;;;1.25;0.40;;;;;;;11.63;59.91;99613.72;4154478;28;20108;-57
2021/12/01 08:26:16;;;;;;;2.35;0.50;;;;;;;11.80;60.03;99634.66;4154615;28;20108;-57
2021/12/01 08:28:18;;;;;;;;;;;;;;;11.80;59.87;99636.47;4154871;28;20216;-56
2021/12/01 08:30:20;;;;;;;1.13;0.40;;;;;;;11.79;60.15;99632.94;4156347;28;19924;-52
2021/12/01 08:32:22;;;;;;;;;;;;;;;11.82;59.63;99650.38;4156882;28;20115;-57
2021/12/01 08:34:25;;;;;;;1.25;0.47;;;;;;;11.81;60.06;99643.41;4156868;28;19984;-58
2021/12/01 08:36:27;;;;;;;2.03;0.40;;;;;;;11.81;59.94;99652.16;4157252;28;20112;-57
2021/12/01 08:38:29;;;;;;;;;;;;;;;11.83;59.91;99641.53;4157118;28;20053;-56
2021/12/01 08:40:31;;;;;;;2.15;0.47;;;;;;;11.82;59.81;99650.38;4157372;28;19921;-55
2021/12/01 08:42:34;;;;;;;2.30;0.40;;;;;;;11.82;59.88;99645.97;4157456;28;20109;-58
2021/12/01 08:44:36;;;;;;;1.70;0.35;;;;;;;11.83;59.76;99644.16;4157145;28;20109;-56
2021/12/01 08:46:38;;;;;;;1.63;0.40;;;;;;;11.86;59.92;99645.75;4157063;28;20050;-56
2021/12/01 08:48:40;;;;;;;;;;;;;;;11.86;60.02;99635.22;4156701;28;20105;-56
2021/12/01 08:50:43;;;;;;;1.25;0.30;;;;;;;11.85;59.89;99623.84;4156761;28;20161;-55
2021/12/01 08:52:45;;;;;;;1.98;0.40;;;;;;;11.81;59.89;99619.69;4156242;28;20357;-55
2021/12/01 08:54:47;;;;;;;0.50;0.35;;;;;;;11.86;59.87;99617.66;4151762;28;20370;-56
2021/12/01 08:56:49;;;;;;;;;;;;;;;11.87;60.06;99627.25;4156826;28;20041;-56
2021/12/01 08:58:51;;;;;;;1.42;0.52;;;;;;;11.88;59.80;99621.03;4156856;28;19917;-56
2021/12/01 09:00:55;;;;;;;1.05;0.30;;;;;;;11.89;59.96;99624.53;4156990;28;20050;-54
2021/12/01 09:02:58;;;;;;;2.00;0.50;;;;;;;11.88;60.02;99621.03;4156756;28;20129;-56
2021/12/01 09:05:00;;;;;;;2.80;0.52;;;;;;;11.89;59.88;99633.25;4156974;28;20049;-56
2021/12/01 09:07:04;;;;;;;1.38;0.40;;;;;;;11.92;59.98;99638.38;4156443;28;20105;-56
2021/12/01 09:09:07;;;;;;;1.75;0.70;;;;;;;11.89;60.04;99627.16;4156956;28;20113;-56
2021/12/01 09:11:09;;;;;;;1.33;0.32;;;;;;;11.92;59.81;99630.47;4153247;28;20053;-56
2021/12/01 09:13:12;;;;;;;1.55;0.40;;;;;;;11.92;60.19;99625.19;4157103;28;20331;-56
2021/12/01 09:15:15;;;;;;;1.45;0.30;;;;;;;11.91;59.73;99618.22;4156524;28;20096;-56
2021/12/01 09:17:17;;;;;;;1.35;0.30;;;;;;;11.89;60.11;99612.19;4156849;28;20109;-56
2021/12/01 09:19:19;;;;;;;1.63;0.40;;;;;;;11.97;59.83;99631.06;4156652;28;20046;-56
2021/12/01 09:21:22;;;;;;;2.25;0.60;;;;;;;11.89;59.77;99619.25;4156561;28;20101;-55
2021/12/01 09:23:24;;;;;;;1.48;0.35;;;;;;;11.97;59.97;99633.69;4156634;28;20099;-55
2021/12/01 09:25:26;;;;;;;;;;;;;;;11.98;59.92;99631.91;4157109;28;20058;-55
2021/12/01 09:27:47;;;;;;;2.17;0.40;;;;;;;11.98;59.62;99621.34;4156326;28;20148;-57
2021/12/01 09:29:51;;;;;;;1.33;0.50;;;;;;;11.97;59.62;99630.22;4156703;28;20165;-56
2021/12/01 09:31:55;;;;;;;1.52;0.40;;;;;;;11.98;60.00;99618.72;4156682;28;20050;-57
2021/12/01 09:33:58;;;;;;;3.70;0.50;;;;;;;12.00;59.64;99624.75;4156777;28;20050;-57
2021/12/01 09:36:01;;;;;;;1.17;0.40;;;;;;;12.00;60.00;99634.47;4156248;28;20273;-58
2021/12/01 09:38:04;;;;;;;1.65;0.38;;;;;;;11.97;59.67;99638.97;4156601;28;20049;-56
2021/12/01 09:40:12;;;;;;;;;;;;;;;12.00;60.21;99627.41;4156683;28;20106;-57
2021/12/01 09:42:15;;;;;;;3.13;0.45;;;;;;;12.01;59.84;99646.72;4155260;28;19921;-57
2021/12/01 09:44:17;;;;;;;1.63;0.30;;;;;;;11.99;59.70;99646.78;4156468;28;20069;-57
2021/12/01 09:46:20;;;;;;;1.45;0.47;;;;;;;11.96;59.98;99644.31;4156114;28;20105;-61
2021/12/01 09:48:24;;;;;;;2.35;0.35;;;;;;;12.02;59.77;99654.53;4156171;28;20113;-58
2021/12/01 09:50:44;;;;;;;1.42;0.50;;;;;;;12.03;59.53;99655.34;4156236;28;20048;-57
2021/12/01 09:52:47;;;;;;;2.47;0.40;;;;;;;12.02;59.65;99649.25;4155269;28;20045;-57